Time;durP1;ratioP1;P1;durP2;ratioP2;P2;SDS_P1;SDS_P2;PMS_P1;PMS_P2;Temp;Humidity;BMP_temperature;BMP_pressure;BME280_temperature;BME280_humidity;BME280_pressure;Samples;Min_cycle;Max_cycle;Signal;HPM_P1;HPM_P2
2024/04/15 00:01:35;;;;;;;1.85;1.75;;;;;;;;;;5487677;26;20343;-58
2024/04/15 00:04:01;;;;;;;1.90;1.73;;;;;;;;;;5484720;26;20635;-55
2024/04/15 00:06:29;;;;;;;1.60;1.50;;;;;;;;;;5487512;26;20230;-55
2024/04/15 00:08:55;;;;;;;2.10;1.95;;;;;;;;;;5484979;26;20231;-57
2024/04/15 00:11:23;;;;;;;1.50;1.40;;;;;;;;;;5487388;26;20327;-56
2024/04/15 00:13:49;;;;;;;1.27;1.17;;;;;;;;;;5484852;26;20227;-57
2024/04/15 00:16:17;;;;;;;1.80;1.70;;;;;;;;;;5487215;26;20218;-57
2024/04/15 00:18:45;;;;;;;2.17;1.73;;;;;;;;;;5484819;26;20247;-55
2024/04/15 00:21:13;;;;;;;1.90;1.80;;;;;;;;;;5487249;26;20218;-56
2024/04/15 00:23:39;;;;;;;1.98;1.88;;;;;;;;;;5484842;26;20231;-56
2024/04/15 00:26:07;;;;;;;1.75;1.65;;;;;;;;;;5486970;26;21086;-54
2024/04/15 00:28:32;;;;;;;1.48;1.38;;;;;;;;;;5484734;26;20737;-56
2024/04/15 00:31:01;;;;;;;1.60;1.50;;;;;;;;;;5487322;26;20231;-56
2024/04/15 00:33:26;;;;;;;4.00;2.05;;;;;;;;;;5484717;26;20239;-56
2024/04/15 00:35:57;;;;;;;2.17;1.55;;;;;;;;;;5487213;26;20339;-57
2024/04/15 00:38:22;;;;;;;2.13;1.92;;;;;;;;;;5484314;26;20769;-55
2024/04/15 00:40:51;;;;;;;1.60;1.50;;;;;;;;;;5486924;26;20223;-57
2024/04/15 00:43:16;;;;;;;1.98;1.65;;;;;;;;;;5422268;26;20227;-56
2024/04/15 00:45:45;;;;;;;1.98;1.70;;;;;;;;;;5486755;26;20235;-56
2024/04/15 00:48:12;;;;;;;1.40;1.30;;;;;;;;;;5484249;26;20261;-57
2024/04/15 00:50:41;;;;;;;2.35;2.15;;;;;;;;;;5485517;26;20281;-55
2024/04/15 00:53:10;;;;;;;1.58;1.48;;;;;;;;;;5484198;26;21377;-55
2024/04/15 00:55:41;;;;;;;1.40;1.30;;;;;;;;;;5486906;26;20231;-55
2024/04/15 00:58:06;;;;;;;2.60;1.60;;;;;;;;;;5484502;26;20742;-55
2024/04/15 01:00:34;;;;;;;1.33;1.20;;;;;;;;;;5486567;26;20286;-55
2024/04/15 01:03:00;;;;;;;2.00;1.50;;;;;;;;;;5484367;26;20230;-56
2024/04/15 01:05:28;;;;;;;1.30;1.20;;;;;;;;;;5486568;26;20291;-54
2024/04/15 01:07:54;;;;;;;1.88;1.40;;;;;;;;;;5484363;26;20278;-57
2024/04/15 01:10:24;;;;;;;1.30;1.20;;;;;;;;;;5486647;26;20239;-56
2024/04/15 01:12:51;;;;;;;1.45;1.35;;;;;;;;;;5483892;26;20285;-54
2024/04/15 01:15:19;;;;;;;1.30;1.20;;;;;;;;;;5486871;26;20285;-55
2024/04/15 01:17:45;;;;;;;1.20;1.10;;;;;;;;;;5483757;26;20223;-56
2024/04/15 01:20:13;;;;;;;1.05;0.95;;;;;;;;;;5486565;26;20226;-57
2024/04/15 01:22:41;;;;;;;1.90;1.80;;;;;;;;;;5484045;26;20711;-57
2024/04/15 01:25:11;;;;;;;1.65;1.55;;;;;;;;;;5486642;26;20338;-57
2024/04/15 01:27:37;;;;;;;1.65;1.50;;;;;;;;;;5483600;26;20219;-55
2024/04/15 01:30:05;;;;;;;1.35;1.25;;;;;;;;;;5486341;26;20261;-57
2024/04/15 01:32:31;;;;;;;2.22;1.50;;;;;;;;;;5483675;26;20230;-55
2024/04/15 01:34:59;;;;;;;2.10;1.90;;;;;;;;;;5483928;26;20247;-56
2024/04/15 01:37:25;;;;;;;2.33;2.05;;;;;;;;;;5484500;26;20798;-56
2024/04/15 01:39:53;;;;;;;2.40;2.20;;;;;;;;;;5486532;26;20277;-57
2024/04/15 01:42:21;;;;;;;3.10;2.63;;;;;;;;;;5484071;26;20219;-55
2024/04/15 01:44:49;;;;;;;2.60;2.40;;;;;;;;;;5486073;26;21205;-55
2024/04/15 01:47:15;;;;;;;3.95;2.58;;;;;;;;;;5483669;26;20264;-51
2024/04/15 01:49:43;;;;;;;3.08;2.38;;;;;;;;;;5486197;26;20227;-54
2024/04/15 01:52:08;;;;;;;2.95;2.30;;;;;;;;;;5483423;26;20235;-57
2024/04/15 01:54:36;;;;;;;2.72;2.28;;;;;;;;;;5485916;26;20234;-54
2024/04/15 01:57:02;;;;;;;2.75;2.05;;;;;;;;;;5483035;26;20699;-55
2024/04/15 01:59:33;;;;;;;3.50;2.63;;;;;;;;;;5486209;26;20311;-56
2024/04/15 02:01:58;;;;;;;2.38;2.20;;;;;;;;;;5483263;26;20269;-55
2024/04/15 02:04:26;;;;;;;2.85;2.65;;;;;;;;;;5486359;26;20234;-57
2024/04/15 02:06:52;;;;;;;2.70;2.50;;;;;;;;;;5483637;26;20614;-57
2024/04/15 02:09:21;;;;;;;2.13;1.90;;;;;;;;;;5485860;26;20242;-56
2024/04/15 02:11:46;;;;;;;2.75;2.47;;;;;;;;;;5483277;26;20757;-57
2024/04/15 02:14:15;;;;;;;3.53;3.05;;;;;;;;;;5485926;26;20218;-55
2024/04/15 02:16:43;;;;;;;3.03;2.72;;;;;;;;;;5483161;26;20230;-58
2024/04/15 02:19:11;;;;;;;3.15;2.85;;;;;;;;;;5485542;26;20266;-55
2024/04/15 02:21:37;;;;;;;2.90;2.70;;;;;;;;;;5483107;26;20569;-57
2024/04/15 02:24:05;;;;;;;2.95;1.90;;;;;;;;;;5485245;26;20234;-55
2024/04/15 02:26:31;;;;;;;2.40;2.20;;;;;;;;;;5482928;26;20279;-56
2024/04/15 02:28:59;;;;;;;2.63;2.42;;;;;;;;;;5485458;26;20788;-57
2024/04/15 02:31:24;;;;;;;5.07;2.63;;;;;;;;;;5482892;26;21029;-55
2024/04/15 02:33:55;;;;;;;3.33;2.67;;;;;;;;;;5484188;26;20296;-53
2024/04/15 02:36:21;;;;;;;2.72;2.40;;;;;;;;;;5482783;26;20257;-56
2024/04/15 02:38:49;;;;;;;2.25;2.05;;;;;;;;;;5485250;26;20227;-56
2024/04/15 02:41:15;;;;;;;2.17;1.98;;;;;;;;;;5482966;26;20334;-55
2024/04/15 02:43:43;;;;;;;2.08;1.88;;;;;;;;;;5485685;26;20234;-56
2024/04/15 02:46:09;;;;;;;2.35;2.03;;;;;;;;;;5482849;26;20264;-54
2024/04/15 02:48:37;;;;;;;2.08;1.88;;;;;;;;;;5485395;26;20238;-54
2024/04/15 02:51:05;;;;;;;2.30;1.90;;;;;;;;;;5482338;26;20239;-54
2024/04/15 02:53:33;;;;;;;4.28;2.10;;;;;;;;;;5484781;26;20306;-56
2024/04/15 02:55:59;;;;;;;2.53;2.33;;;;;;;;;;5482439;26;20707;-57
2024/04/15 02:58:27;;;;;;;2.70;2.10;;;;;;;;;;5485178;26;20265;-57
2024/04/15 03:00:53;;;;;;;5.00;2.30;;;;;;;;;;5482507;26;20338;-54
2024/04/15 03:03:21;;;;;;;3.05;2.85;;;;;;;;;;5421593;26;20227;-54
2024/04/15 03:05:47;;;;;;;2.55;2.35;;;;;;;;;;5482632;26;20231;-55
2024/04/15 03:08:17;;;;;;;2.85;2.65;;;;;;;;;;5484795;26;20223;-56
2024/04/15 03:10:46;;;;;;;2.22;2.13;;;;;;;;;;5481928;26;20334;-56
2024/04/15 03:13:11;;;;;;;2.40;2.20;;;;;;;;;;5482288;26;20223;-55
2024/04/15 03:15:39;;;;;;;4.22;2.70;;;;;;;;;;5488339;26;20235;-57
2024/04/15 03:18:05;;;;;;;2.88;2.67;;;;;;;;;;5485654;26;20226;-56
2024/04/15 03:20:33;;;;;;;2.70;2.50;;;;;;;;;;5488173;26;20750;-54
2024/04/15 03:22:58;;;;;;;3.00;2.63;;;;;;;;;;5485671;26;20219;-55
2024/04/15 03:25:29;;;;;;;3.22;2.80;;;;;;;;;;5488145;26;20231;-57
2024/04/15 03:27:55;;;;;;;2.80;2.60;;;;;;;;;;5486019;26;20325;-55
2024/04/15 03:30:23;;;;;;;3.42;2.90;;;;;;;;;;5487949;26;21006;-56
2024/04/15 03:32:49;;;;;;;3.15;2.88;;;;;;;;;;5485482;26;20568;-54
2024/04/15 03:35:17;;;;;;;3.58;3.28;;;;;;;;;;5485426;26;20293;-55
2024/04/15 03:37:45;;;;;;;3.50;3.30;;;;;;;;;;5485382;26;20231;-55
2024/04/15 03:40:13;;;;;;;3.60;3.30;;;;;;;;;;5485215;26;20326;-56
2024/04/15 03:42:44;;;;;;;5.55;3.00;;;;;;;;;;5485499;26;20269;-54
2024/04/15 03:45:10;;;;;;;3.47;2.92;;;;;;;;;;5485028;26;20231;-55
2024/04/15 03:47:38;;;;;;;3.45;3.15;;;;;;;;;;5488051;26;20633;-54
2024/04/15 03:50:04;;;;;;;3.50;3.30;;;;;;;;;;5485454;26;20731;-57
2024/04/15 03:52:33;;;;;;;3.78;3.40;;;;;;;;;;5487392;26;20303;-57
2024/04/15 03:54:58;;;;;;;3.67;3.38;;;;;;;;;;5485582;26;20227;-54
2024/04/15 03:57:26;;;;;;;3.33;3.03;;;;;;;;;;5424431;26;20711;-56
2024/04/15 03:59:55;;;;;;;3.20;3.00;;;;;;;;;;5485273;26;20239;-58
2024/04/15 04:02:23;;;;;;;4.20;3.80;;;;;;;;;;5487851;26;20258;-58
2024/04/15 04:04:49;;;;;;;3.15;2.95;;;;;;;;;;5484921;26;20269;-54
2024/04/15 04:07:17;;;;;;;4.40;4.07;;;;;;;;;;5454054;26;20723;-53
2024/04/15 04:09:43;;;;;;;3.78;3.47;;;;;;;;;;5485204;26;20227;-54
2024/04/15 04:12:11;;;;;;;2.63;2.42;;;;;;;;;;5487600;26;20328;-56
2024/04/15 04:14:36;;;;;;;2.72;2.53;;;;;;;;;;5364419;26;20222;-58
2024/04/15 04:17:07;;;;;;;3.75;3.05;;;;;;;;;;5487356;26;20299;-56
2024/04/15 04:19:33;;;;;;;2.60;2.40;;;;;;;;;;5484897;26;20226;-53
2024/04/15 04:22:01;;;;;;;4.88;3.45;;;;;;;;;;5424216;26;21144;-56
2024/04/15 04:24:28;;;;;;;3.58;2.70;;;;;;;;;;5484548;26;20799;-54
2024/04/15 04:26:56;;;;;;;3.63;3.33;;;;;;;;;;5487587;26;20282;-54
2024/04/15 04:29:21;;;;;;;3.53;3.22;;;;;;;;;;5422542;26;20283;-56
2024/04/15 04:31:50;;;;;;;3.95;3.65;;;;;;;;;;5487323;26;21148;-55
2024/04/15 04:34:18;;;;;;;5.00;3.35;;;;;;;;;;5484796;26;20306;-54
2024/04/15 04:36:46;;;;;;;4.68;3.63;;;;;;;;;;5486763;26;20273;-54
2024/04/15 04:39:12;;;;;;;3.17;2.92;;;;;;;;;;5484618;26;20235;-57
2024/04/15 04:41:40;;;;;;;3.05;2.83;;;;;;;;;;5487509;26;20704;-57
2024/04/15 04:44:06;;;;;;;2.85;2.63;;;;;;;;;;5484730;26;20277;-54
2024/04/15 04:46:34;;;;;;;3.63;3.10;;;;;;;;;;5487198;26;20763;-56
2024/04/15 04:49:00;;;;;;;3.95;3.10;;;;;;;;;;5484596;26;20257;-54
2024/04/15 04:51:31;;;;;;;3.08;2.85;;;;;;;;;;5486750;26;20231;-54
2024/04/15 04:53:57;;;;;;;4.32;3.58;;;;;;;;;;5421044;26;20251;-56
2024/04/15 04:56:25;;;;;;;5.63;3.67;;;;;;;;;;5487101;26;20230;-56
2024/04/15 04:58:51;;;;;;;2.92;2.72;;;;;;;;;;5483818;26;20269;-56
2024/04/15 05:01:19;;;;;;;3.45;3.15;;;;;;;;;;5486665;26;20747;-55
2024/04/15 05:03:45;;;;;;;5.43;2.88;;;;;;;;;;5483889;26;20268;-56
2024/04/15 05:06:14;;;;;;;3.95;2.65;;;;;;;;;;5486319;26;20231;-56
2024/04/15 05:08:43;;;;;;;2.92;2.72;;;;;;;;;;5484070;26;20286;-57
2024/04/15 05:11:11;;;;;;;2.33;2.20;;;;;;;;;;5423004;26;20226;-53
2024/04/15 05:13:37;;;;;;;3.10;2.70;;;;;;;;;;5483898;26;20259;-58
2024/04/15 05:16:06;;;;;;;2.72;2.53;;;;;;;;;;5486339;26;20223;-58
2024/04/15 05:18:32;;;;;;;2.60;2.40;;;;;;;;;;5484198;26;20276;-56
2024/04/15 05:21:01;;;;;;;2.85;2.30;;;;;;;;;;5486349;26;20234;-58
2024/04/15 05:23:27;;;;;;;3.83;2.65;;;;;;;;;;5484059;26;20736;-57
2024/04/15 05:25:58;;;;;;;2.80;2.60;;;;;;;;;;5424011;26;20227;-57
2024/04/15 05:28:24;;;;;;;2.30;2.10;;;;;;;;;;5484567;26;20231;-58
2024/04/15 05:30:54;;;;;;;2.28;2.08;;;;;;;;;;5486649;26;20666;-59
2024/04/15 05:33:20;;;;;;;2.45;1.90;;;;;;;;;;5363459;26;20703;-57
2024/04/15 05:35:48;;;;;;;2.60;2.10;;;;;;;;;;5485203;26;20231;-57
2024/04/15 05:38:14;;;;;;;2.92;2.00;;;;;;;;;;5483769;26;20220;-58
2024/04/15 05:40:42;;;;;;;3.00;2.70;;;;;;;;;;5486220;26;20346;-58
2024/04/15 05:43:11;;;;;;;3.67;2.92;;;;;;;;;;5483412;26;20231;-58
2024/04/15 05:45:40;;;;;;;2.78;2.53;;;;;;;;;;5486048;26;20586;-58
2024/04/15 05:48:06;;;;;;;2.83;2.40;;;;;;;;;;5483358;26;20567;-57
2024/04/15 05:50:34;;;;;;;4.60;2.70;;;;;;;;;;5485905;26;20290;-60
2024/04/15 05:52:59;;;;;;;3.53;2.30;;;;;;;;;;5420943;26;20304;-61
2024/04/15 05:55:28;;;;;;;2.65;2.15;;;;;;;;;;5485918;26;20238;-60
2024/04/15 05:57:53;;;;;;;3.38;2.25;;;;;;;;;;5483469;26;20331;-61
2024/04/15 06:00:24;;;;;;;4.35;3.40;;;;;;;;;;5485701;26;20227;-60
2024/04/15 06:02:50;;;;;;;4.68;3.38;;;;;;;;;;5483063;26;20753;-60
2024/04/15 06:05:19;;;;;;;4.50;4.10;;;;;;;;;;5485876;26;20227;-59
2024/04/15 06:07:45;;;;;;;5.72;3.33;;;;;;;;;;5483333;26;20330;-60
2024/04/15 06:10:13;;;;;;;4.75;3.42;;;;;;;;;;5485841;26;20243;-60
2024/04/15 06:12:40;;;;;;;2.60;2.40;;;;;;;;;;5483423;26;20296;-60
2024/04/15 06:15:08;;;;;;;2.67;2.47;;;;;;;;;;5485841;26;20261;-59
2024/04/15 06:17:37;;;;;;;2.47;2.28;;;;;;;;;;5483134;26;20265;-60
2024/04/15 06:20:05;;;;;;;2.10;2.00;;;;;;;;;;5485670;26;20273;-59
2024/04/15 06:22:31;;;;;;;3.28;2.13;;;;;;;;;;5482718;26;20826;-60
2024/04/15 06:24:59;;;;;;;4.07;2.17;;;;;;;;;;5485913;26;20277;-60
2024/04/15 06:27:24;;;;;;;5.13;2.47;;;;;;;;;;5420865;26;20302;-60
2024/04/15 06:29:53;;;;;;;2.80;2.25;;;;;;;;;;5485351;26;20226;-60
2024/04/15 06:32:18;;;;;;;3.40;2.78;;;;;;;;;;5482609;26;20731;-60
2024/04/15 06:34:49;;;;;;;3.33;2.20;;;;;;;;;;5483247;26;20292;-60
2024/04/15 06:37:15;;;;;;;2.33;1.70;;;;;;;;;;5482295;26;20294;-60
2024/04/15 06:39:43;;;;;;;2.90;2.60;;;;;;;;;;5485097;26;20231;-60
2024/04/15 06:42:09;;;;;;;2.42;2.22;;;;;;;;;;5482491;26;20265;-60
2024/04/15 06:44:37;;;;;;;3.50;2.85;;;;;;;;;;5485009;26;20277;-60
2024/04/15 06:47:03;;;;;;;2.70;2.50;;;;;;;;;;5482587;26;20223;-60
2024/04/15 06:49:31;;;;;;;2.53;2.33;;;;;;;;;;5488360;26;20758;-60
2024/04/15 06:51:59;;;;;;;2.03;1.83;;;;;;;;;;5486283;26;20222;-60
2024/04/15 06:54:27;;;;;;;2.50;2.30;;;;;;;;;;5488352;26;20238;-61
2024/04/15 06:56:52;;;;;;;3.78;2.42;;;;;;;;;;5486133;26;20329;-60
2024/04/15 06:59:21;;;;;;;2.60;2.40;;;;;;;;;;5488273;26;20712;-60
2024/04/15 07:01:46;;;;;;;3.17;2.72;;;;;;;;;;5485546;26;20261;-60
2024/04/15 07:04:14;;;;;;;2.55;2.15;;;;;;;;;;5488475;26;20242;-60
2024/04/15 07:06:40;;;;;;;2.67;2.47;;;;;;;;;;5485875;26;20223;-60
2024/04/15 07:09:11;;;;;;;3.60;3.13;;;;;;;;;;5487910;26;20815;-60
2024/04/15 07:11:36;;;;;;;3.33;2.88;;;;;;;;;;5485540;26;20397;-60
2024/04/15 07:14:04;;;;;;;2.55;2.33;;;;;;;;;;5487998;26;20660;-58
2024/04/15 07:16:30;;;;;;;3.13;2.45;;;;;;;;;;5485409;26;20555;-60
2024/04/15 07:18:58;;;;;;;4.07;3.10;;;;;;;;;;5488205;26;20292;-60
2024/04/15 07:21:24;;;;;;;4.90;2.70;;;;;;;;;;5485544;26;20282;-60
2024/04/15 07:23:52;;;;;;;2.78;2.38;;;;;;;;;;5487985;26;20710;-60
2024/04/15 07:26:20;;;;;;;3.30;2.30;;;;;;;;;;5485555;26;20261;-60
2024/04/15 07:28:49;;;;;;;4.82;3.40;;;;;;;;;;5488051;26;20268;-60
2024/04/15 07:31:14;;;;;;;3.28;2.70;;;;;;;;;;5485369;26;20227;-60
2024/04/15 07:33:42;;;;;;;2.92;2.42;;;;;;;;;;5487354;26;20298;-60
2024/04/15 07:36:08;;;;;;;3.33;2.20;;;;;;;;;;5485440;26;20303;-59
2024/04/15 07:38:36;;;;;;;4.38;2.35;;;;;;;;;;5424525;26;20723;-58
2024/04/15 07:41:02;;;;;;;2.90;2.30;;;;;;;;;;5485401;26;20230;-59
2024/04/15 07:43:33;;;;;;;4.35;2.38;;;;;;;;;;5487676;26;20226;-60
2024/04/15 07:45:58;;;;;;;4.28;2.25;;;;;;;;;;5485332;26;20230;-60
2024/04/15 07:48:27;;;;;;;2.40;2.20;;;;;;;;;;5424067;26;20281;-60
2024/04/15 07:50:52;;;;;;;3.30;2.22;;;;;;;;;;5485178;26;20361;-60
2024/04/15 07:53:20;;;;;;;3.75;2.13;;;;;;;;;;5487420;26;20274;-60
2024/04/15 07:55:47;;;;;;;2.72;2.05;;;;;;;;;;5484806;26;20223;-60
2024/04/15 07:58:15;;;;;;;2.50;2.10;;;;;;;;;;5487391;26;20265;-59
2024/04/15 08:00:44;;;;;;;2.92;2.22;;;;;;;;;;5484094;26;20355;-60
2024/04/15 08:03:12;;;;;;;4.40;2.08;;;;;;;;;;5487444;26;20222;-60
2024/04/15 08:05:40;;;;;;;2.88;1.83;;;;;;;;;;5484528;26;20234;-60
2024/04/15 08:08:07;;;;;;;3.92;2.08;;;;;;;;;;5484906;26;20293;-59
2024/04/15 08:10:35;;;;;;;3.70;1.80;;;;;;;;;;5424373;26;20239;-58
2024/04/15 08:13:01;;;;;;;4.28;2.35;;;;;;;;;;5484805;26;20719;-59
2024/04/15 08:15:30;;;;;;;3.65;2.08;;;;;;;;;;5487497;26;20261;-60
2024/04/15 08:17:59;;;;;;;2.55;2.15;;;;;;;;;;5484447;26;20273;-58
2024/04/15 08:20:27;;;;;;;2.00;1.70;;;;;;;;;;5487173;26;20269;-60
2024/04/15 08:22:53;;;;;;;1.90;1.80;;;;;;;;;;5484525;26;20227;-60
2024/04/15 08:25:21;;;;;;;2.55;1.70;;;;;;;;;;5487387;26;20335;-59
2024/04/15 08:27:47;;;;;;;2.85;1.80;;;;;;;;;;5421057;26;20267;-57
2024/04/15 08:30:15;;;;;;;2.85;1.92;;;;;;;;;;5486929;26;20283;-58
2024/04/15 08:32:41;;;;;;;2.13;2.00;;;;;;;;;;5484101;26;21076;-58
2024/04/15 08:35:12;;;;;;;2.20;1.98;;;;;;;;;;5484802;26;20239;-60
2024/04/15 08:37:37;;;;;;;3.65;1.70;;;;;;;;;;5484504;26;20235;-60
2024/04/15 08:40:06;;;;;;;3.33;1.80;;;;;;;;;;5486603;26;20824;-60
2024/04/15 08:42:47;;;;;;;2.78;1.88;;;;;;;;;;5484272;26;20222;-60
2024/04/15 08:45:19;;;;;;;2.17;2.03;;;;;;;;;;5486751;26;20269;-60
2024/04/15 08:47:48;;;;;;;2.13;1.50;;;;;;;;;;5484257;26;20227;-60
2024/04/15 08:50:20;;;;;;;3.00;2.05;;;;;;;;;;5486654;26;20274;-60
2024/04/15 08:52:47;;;;;;;1.88;1.60;;;;;;;;;;5483852;26;20238;-59
2024/04/15 08:55:16;;;;;;;1.52;1.40;;;;;;;;;;5486853;26;20235;-60
2024/04/15 08:57:41;;;;;;;2.10;1.80;;;;;;;;;;5483991;26;20617;-60
2024/04/15 09:00:11;;;;;;;1.88;1.73;;;;;;;;;;5486780;26;20281;-60
2024/04/15 09:02:38;;;;;;;2.13;2.00;;;;;;;;;;5484347;26;20277;-60
2024/04/15 09:05:06;;;;;;;3.95;1.90;;;;;;;;;;5486062;26;20712;-60
2024/04/15 09:07:35;;;;;;;2.45;1.83;;;;;;;;;;5483951;26;20230;-60
2024/04/15 09:10:03;;;;;;;3.65;1.70;;;;;;;;;;5486302;26;20238;-60
2024/04/15 09:12:34;;;;;;;2.20;1.70;;;;;;;;;;5482847;26;20226;-59
2024/04/15 09:15:02;;;;;;;2.35;2.15;;;;;;;;;;5423752;26;20219;-59
2024/04/15 09:17:28;;;;;;;4.05;1.85;;;;;;;;;;5484204;26;20246;-59
2024/04/15 09:19:56;;;;;;;4.13;2.05;;;;;;;;;;5486714;26;20226;-60
2024/04/15 09:22:27;;;;;;;2.85;1.80;;;;;;;;;;5483680;26;20274;-59
2024/04/15 09:24:58;;;;;;;3.17;1.70;;;;;;;;;;5486420;26;20226;-59
2024/04/15 09:27:25;;;;;;;2.00;1.63;;;;;;;;;;5483737;26;20227;-59
2024/04/15 09:29:53;;;;;;;2.53;1.80;;;;;;;;;;5486239;26;20281;-59
2024/04/15 09:32:19;;;;;;;3.15;1.90;;;;;;;;;;5484063;26;20226;-59
2024/04/15 09:34:47;;;;;;;1.90;1.80;;;;;;;;;;5484428;26;20299;-59
2024/04/15 09:37:13;;;;;;;2.70;1.60;;;;;;;;;;5420425;26;20277;-59
2024/04/15 09:39:41;;;;;;;1.75;1.40;;;;;;;;;;5486124;26;20692;-59
2024/04/15 09:42:10;;;;;;;2.92;1.70;;;;;;;;;;5483676;26;20343;-59
2024/04/15 09:44:40;;;;;;;3.03;1.92;;;;;;;;;;5486004;26;20231;-59
2024/04/15 09:47:06;;;;;;;1.67;1.48;;;;;;;;;;5483561;26;20311;-59
2024/04/15 09:49:35;;;;;;;1.48;1.35;;;;;;;;;;5452407;26;20222;-59
2024/04/15 09:52:03;;;;;;;2.70;1.70;;;;;;;;;;5483589;26;20339;-59
2024/04/15 09:54:33;;;;;;;3.25;1.60;;;;;;;;;;5485234;26;20291;-59
2024/04/15 09:57:03;;;;;;;2.42;1.60;;;;;;;;;;5483273;26;20720;-60
2024/04/15 09:59:36;;;;;;;1.65;1.55;;;;;;;;;;5483302;26;20230;-60
2024/04/15 10:02:04;;;;;;;1.90;1.80;;;;;;;;;;5483051;26;20227;-59
2024/04/15 10:04:34;;;;;;;3.08;1.75;;;;;;;;;;5422545;26;20242;-59
2024/04/15 10:07:02;;;;;;;1.73;1.63;;;;;;;;;;5483178;26;20227;-59
2024/04/15 10:09:31;;;;;;;2.47;1.58;;;;;;;;;;5485546;26;20219;-59
2024/04/15 10:11:58;;;;;;;2.10;1.90;;;;;;;;;;5483234;26;20231;-60
2024/04/15 10:14:26;;;;;;;2.78;1.83;;;;;;;;;;5485677;26;20230;-60
2024/04/15 10:16:54;;;;;;;1.77;1.42;;;;;;;;;;5483120;26;20262;-59
2024/04/15 10:19:26;;;;;;;1.65;1.55;;;;;;;;;;5422446;26;20782;-59
2024/04/15 10:21:52;;;;;;;3.20;2.00;;;;;;;;;;5482478;26;20294;-59
2024/04/15 10:24:20;;;;;;;3.15;2.03;;;;;;;;;;5485317;26;20330;-59
2024/04/15 10:26:46;;;;;;;3.35;1.65;;;;;;;;;;5420714;26;20223;-59
2024/04/15 10:29:18;;;;;;;1.95;1.85;;;;;;;;;;5484937;26;20290;-59
2024/04/15 10:31:47;;;;;;;2.08;1.88;;;;;;;;;;5419182;26;20223;-59
2024/04/15 10:34:19;;;;;;;3.90;1.98;;;;;;;;;;5420819;26;20289;-59
2024/04/15 10:36:47;;;;;;;2.03;1.70;;;;;;;;;;5482290;26;20753;-59
2024/04/15 10:39:17;;;;;;;3.17;1.50;;;;;;;;;;5485140;26;20328;-59
2024/04/15 10:41:43;;;;;;;1.40;1.30;;;;;;;;;;5482233;26;20334;-59
2024/04/15 10:44:12;;;;;;;1.73;1.52;;;;;;;;;;5484768;26;20222;-58
2024/04/15 10:46:39;;;;;;;1.88;1.45;;;;;;;;;;5482234;26;20294;-59
2024/04/15 10:49:08;;;;;;;1.30;1.20;;;;;;;;;;5484841;26;20222;-60
2024/04/15 10:51:36;;;;;;;3.15;1.70;;;;;;;;;;5482384;26;20294;-60
2024/04/15 10:54:05;;;;;;;2.00;1.60;;;;;;;;;;5484418;26;20281;-59
2024/04/15 10:56:31;;;;;;;2.22;1.67;;;;;;;;;;5482269;26;20227;-59
2024/04/15 10:58:59;;;;;;;3.28;1.55;;;;;;;;;;5484871;26;20280;-60
2024/04/15 11:01:25;;;;;;;1.90;1.80;;;;;;;;;;5482508;26;20238;-59
2024/04/15 11:03:53;;;;;;;1.65;1.55;;;;;;;;;;5484520;26;20661;-60
2024/04/15 11:06:19;;;;;;;1.83;1.73;;;;;;;;;;5482126;26;20226;-59
2024/04/15 11:08:51;;;;;;;1.70;1.60;;;;;;;;;;5484516;26;20277;-59
2024/04/15 11:11:16;;;;;;;1.30;1.20;;;;;;;;;;5481879;26;20281;-59
2024/04/15 11:13:45;;;;;;;1.80;1.70;;;;;;;;;;5484413;26;20234;-59
2024/04/15 11:16:13;;;;;;;2.13;1.42;;;;;;;;;;5481735;26;20348;-60
2024/04/15 11:18:42;;;;;;;1.95;1.83;;;;;;;;;;5484587;26;20335;-59
2024/04/15 11:21:08;;;;;;;1.80;1.45;;;;;;;;;;5481615;26;20223;-60
2024/04/15 11:23:37;;;;;;;1.30;1.25;;;;;;;;;;5484320;26;20239;-60
2024/04/15 11:26:06;;;;;;;1.27;1.20;;;;;;;;;;5481483;26;20319;-60
2024/04/15 11:28:35;;;;;;;2.72;1.23;;;;;;;;;;5484043;26;20230;-60
2024/04/15 11:31:01;;;;;;;1.35;1.13;;;;;;;;;;5481624;26;20266;-59
2024/04/15 11:33:29;;;;;;;1.20;1.10;;;;;;;;;;5483854;26;20298;-60
2024/04/15 11:35:54;;;;;;;1.00;0.90;;;;;;;;;;5423176;26;20231;-59
2024/04/15 11:38:26;;;;;;;1.27;1.17;;;;;;;;;;5488000;26;20331;-60
2024/04/15 11:40:51;;;;;;;2.03;1.00;;;;;;;;;;5485252;26;21222;-60
2024/04/15 11:43:22;;;;;;;0.98;0.80;;;;;;;;;;5487923;26;20238;-59
2024/04/15 11:45:52;;;;;;;1.63;1.10;;;;;;;;;;5485331;26;20227;-59
2024/04/15 11:48:20;;;;;;;1.48;1.17;;;;;;;;;;5487815;26;20798;-59
2024/04/15 11:50:48;;;;;;;1.30;1.15;;;;;;;;;;5485139;26;20223;-59
2024/04/15 11:53:16;;;;;;;1.27;1.15;;;;;;;;;;5487450;26;20250;-59
2024/04/15 11:55:42;;;;;;;1.30;1.20;;;;;;;;;;5484867;26;20303;-60
2024/04/15 11:58:10;;;;;;;0.90;0.90;;;;;;;;;;5487643;26;20231;-60
2024/04/15 12:00:38;;;;;;;1.80;1.23;;;;;;;;;;5484951;26;20219;-59
2024/04/15 12:03:07;;;;;;;1.17;1.08;;;;;;;;;;5487648;26;20277;-57
2024/04/15 12:05:32;;;;;;;1.08;1.00;;;;;;;;;;5485017;26;20563;-60
2024/04/15 12:08:00;;;;;;;2.08;1.02;;;;;;;;;;5487686;26;20231;-59
2024/04/15 12:10:27;;;;;;;3.80;1.00;;;;;;;;;;5484696;26;20278;-59
2024/04/15 12:12:55;;;;;;;1.48;1.10;;;;;;;;;;5487336;26;20274;-59
2024/04/15 12:15:21;;;;;;;0.90;0.90;;;;;;;;;;5423008;26;20246;-57
2024/04/15 12:17:52;;;;;;;1.60;1.23;;;;;;;;;;5487435;26;20227;-59
2024/04/15 12:20:18;;;;;;;1.30;1.13;;;;;;;;;;5485057;26;20235;-59
2024/04/15 12:22:46;;;;;;;1.40;1.30;;;;;;;;;;5487395;26;20620;-59
2024/04/15 12:25:13;;;;;;;0.90;0.90;;;;;;;;;;5484764;26;20231;-58
2024/04/15 12:27:43;;;;;;;1.92;1.05;;;;;;;;;;5487285;26;20269;-59
2024/04/15 12:30:10;;;;;;;1.50;1.30;;;;;;;;;;5484690;26;20657;-59
2024/04/15 12:32:38;;;;;;;1.02;0.98;;;;;;;;;;5423650;26;20227;-59
2024/04/15 12:35:07;;;;;;;1.00;0.90;;;;;;;;;;5484226;26;20239;-59
2024/04/15 12:37:35;;;;;;;1.02;0.98;;;;;;;;;;5487032;26;20278;-59
2024/04/15 12:40:01;;;;;;;1.45;1.10;;;;;;;;;;5484532;26;20261;-59
2024/04/15 12:42:30;;;;;;;1.38;1.27;;;;;;;;;;5486990;26;20270;-59
2024/04/15 12:44:55;;;;;;;1.25;1.17;;;;;;;;;;5484318;26;20275;-60
2024/04/15 12:47:25;;;;;;;1.63;1.42;;;;;;;;;;5486956;26;20414;-60
2024/04/15 12:49:50;;;;;;;1.30;1.20;;;;;;;;;;5484193;26;20337;-59
2024/04/15 12:52:21;;;;;;;1.13;1.02;;;;;;;;;;5486707;26;20571;-60
2024/04/15 12:54:47;;;;;;;1.40;1.30;;;;;;;;;;5484512;26;20264;-60
2024/04/15 12:57:15;;;;;;;1.10;1.00;;;;;;;;;;5486883;26;20927;-60
2024/04/15 12:59:40;;;;;;;1.85;1.13;;;;;;;;;;5484964;26;20231;-59
2024/04/15 13:02:09;;;;;;;2.15;1.10;;;;;;;;;;5487569;26;20330;-59
2024/04/15 13:04:34;;;;;;;2.55;1.50;;;;;;;;;;5484780;26;20231;-59
2024/04/15 13:07:03;;;;;;;2.17;1.65;;;;;;;;;;5486715;26;20230;-59
2024/04/15 13:09:31;;;;;;;2.03;1.63;;;;;;;;;;5483993;26;20322;-59
2024/04/15 13:12:00;;;;;;;3.03;2.80;;;;;;;;;;5486481;26;20290;-60
2024/04/15 13:14:25;;;;;;;2.95;2.00;;;;;;;;;;5483950;26;20366;-59
2024/04/15 13:16:53;;;;;;;2.10;1.60;;;;;;;;;;5486850;26;20231;-60
2024/04/15 13:19:19;;;;;;;2.05;1.40;;;;;;;;;;5484261;26;20230;-59
2024/04/15 13:21:47;;;;;;;1.45;1.35;;;;;;;;;;5486379;26;20266;-59
2024/04/15 13:24:13;;;;;;;1.42;1.33;;;;;;;;;;5483717;26;20330;-59
2024/04/15 13:26:44;;;;;;;1.50;1.40;;;;;;;;;;5486410;26;20227;-60
2024/04/15 13:29:09;;;;;;;2.03;1.60;;;;;;;;;;5483449;26;20230;-60
2024/04/15 13:31:37;;;;;;;1.70;1.40;;;;;;;;;;5423215;26;20569;-60
2024/04/15 13:34:04;;;;;;;1.30;1.20;;;;;;;;;;5483416;26;20350;-60
2024/04/15 13:36:32;;;;;;;1.92;1.30;;;;;;;;;;5486284;26;20235;-59
2024/04/15 13:38:58;;;;;;;1.52;1.17;;;;;;;;;;5483986;26;20293;-60
2024/04/15 13:41:26;;;;;;;1.40;1.30;;;;;;;;;;5486406;26;20587;-60
2024/04/15 13:43:54;;;;;;;3.80;1.38;;;;;;;;;;5420209;26;20234;-60
2024/04/15 13:46:23;;;;;;;1.65;1.27;;;;;;;;;;5486222;26;20231;-60
2024/04/15 13:48:48;;;;;;;1.30;1.20;;;;;;;;;;5483370;26;20231;-59
2024/04/15 13:51:16;;;;;;;1.23;1.13;;;;;;;;;;5422485;26;20231;-59
2024/04/15 13:53:42;;;;;;;4.30;1.42;;;;;;;;;;5483232;26;20324;-59
2024/04/15 13:56:11;;;;;;;2.00;1.20;;;;;;;;;;5485520;26;20234;-60
2024/04/15 13:58:37;;;;;;;1.40;1.20;;;;;;;;;;5482679;26;20227;-60
2024/04/15 14:01:09;;;;;;;1.73;1.40;;;;;;;;;;5485714;26;20273;-60
2024/04/15 14:03:35;;;;;;;1.27;1.17;;;;;;;;;;5362178;26;20323;-60
2024/04/15 14:06:03;;;;;;;2.75;1.23;;;;;;;;;;5485931;26;20231;-60
2024/04/15 14:08:29;;;;;;;1.58;1.48;;;;;;;;;;5482999;26;20335;-60
2024/04/15 14:10:57;;;;;;;2.05;1.40;;;;;;;;;;5422617;26;20235;-60
2024/04/15 14:13:23;;;;;;;1.70;1.30;;;;;;;;;;5483214;26;20230;-59
2024/04/15 14:15:51;;;;;;;1.85;1.20;;;;;;;;;;5485654;26;20823;-60
2024/04/15 14:18:19;;;;;;;1.40;1.00;;;;;;;;;;5483018;26;20375;-59
2024/04/15 14:20:48;;;;;;;1.95;1.40;;;;;;;;;;5485126;26;20219;-59
2024/04/15 14:23:14;;;;;;;2.15;1.58;;;;;;;;;;5483023;26;20373;-59
2024/04/15 14:25:42;;;;;;;2.55;1.17;;;;;;;;;;5485221;26;20716;-59
2024/04/15 14:28:08;;;;;;;2.58;1.50;;;;;;;;;;5482795;26;20555;-59
2024/04/15 14:30:38;;;;;;;2.35;1.65;;;;;;;;;;5485153;26;20222;-59
2024/04/15 14:33:04;;;;;;;2.13;1.50;;;;;;;;;;5482504;26;20231;-60
2024/04/15 14:35:35;;;;;;;1.88;1.35;;;;;;;;;;5482730;26;20238;-59
2024/04/15 14:38:03;;;;;;;1.30;1.20;;;;;;;;;;5482616;26;20230;-60
2024/04/15 14:40:29;;;;;;;1.77;1.30;;;;;;;;;;5482284;26;20226;-60
2024/04/15 14:42:58;;;;;;;3.80;1.98;;;;;;;;;;5485045;26;20226;-59
2024/04/15 14:45:23;;;;;;;1.42;1.30;;;;;;;;;;5482656;26;20595;-59